createdAt,value
2016-11-23T00:01:10.273Z,1017.3
2016-11-23T00:06:14.367Z,1017.3
2016-11-23T00:11:18.460Z,1017.4
2016-11-23T00:16:23.220Z,1017.4
2016-11-23T00:21:27.646Z,1017.4
2016-11-23T00:26:32.076Z,1017.5
2016-11-23T00:31:36.499Z,1017.4
2016-11-23T00:36:40.923Z,1017.5
2016-11-23T00:41:45.014Z,1017.6
2016-11-23T00:46:49.797Z,1017.7
2016-11-23T00:51:53.899Z,1017.8
2016-11-23T00:56:57.983Z,1017.8
2016-11-23T01:02:02.404Z,1017.8
2016-11-23T01:07:06.493Z,1017.7
2016-11-23T01:12:10.576Z,1017.8
2016-11-23T01:17:14.998Z,1017.8
2016-11-23T01:22:19.085Z,1017.8
2016-11-23T01:27:23.175Z,1017.9
2016-11-23T01:32:27.601Z,1017.8
2016-11-23T01:37:32.365Z,1017.6
2016-11-23T01:42:36.448Z,1017.5
2016-11-23T01:47:40.536Z,1017.5
2016-11-23T01:52:44.983Z,1017.6
2016-11-23T01:57:49.399Z,1017.5
2016-11-23T02:02:53.833Z,1017.5
2016-11-23T02:07:58.266Z,1017.5
2016-11-23T02:13:02.701Z,1017.5
2016-11-23T02:18:07.126Z,1017.6
2016-11-23T02:23:11.550Z,1017.5
2016-11-23T02:28:15.977Z,1017.6
2016-11-23T02:33:20.407Z,1017.6
2016-11-23T02:38:24.495Z,1017.7
2016-11-23T02:43:28.581Z,1017.9
2016-11-23T02:48:32.667Z,1017.8
2016-11-23T02:53:36.762Z,1017.8
2016-11-23T02:58:41.190Z,1017.8
2016-11-23T03:03:45.273Z,1017.8
2016-11-23T03:08:49.362Z,1017.8
2016-11-23T03:13:53.788Z,1017.9
2016-11-23T03:18:57.871Z,1017.9
2016-11-23T03:24:02.293Z,1018
2016-11-23T03:29:06.384Z,1017.9
2016-11-23T03:34:10.477Z,1017.9
2016-11-23T03:39:14.571Z,1017.9
2016-11-23T03:44:18.658Z,1017.9
2016-11-23T03:49:22.745Z,1017.9
2016-11-23T03:54:26.833Z,1017.9
2016-11-23T03:59:31.593Z,1018
2016-11-23T04:04:36.686Z,1017.9
2016-11-23T04:09:40.771Z,1018
2016-11-23T04:14:45.546Z,1018
2016-11-23T04:19:49.629Z,1017.9
2016-11-23T04:24:54.056Z,1018
2016-11-23T04:29:58.150Z,1017.9
2016-11-23T04:35:02.237Z,1017.9
2016-11-23T04:40:06.995Z,1017.9
2016-11-23T04:45:12.100Z,1017.9
2016-11-23T04:50:16.193Z,1018.1
2016-11-23T04:55:20.284Z,1018.1
2016-11-23T05:00:25.043Z,1018.1
2016-11-23T05:05:29.142Z,1018.2
2016-11-23T05:10:33.232Z,1018.2
2016-11-23T05:15:37.664Z,1018.3
2016-11-23T05:20:41.756Z,1018.4
2016-11-23T05:25:45.848Z,1018.4
2016-11-23T05:30:50.279Z,1018.3
2016-11-23T05:35:54.729Z,1018.3
2016-11-23T05:40:58.829Z,1018.3
2016-11-23T05:46:02.918Z,1018.4
2016-11-23T05:51:07.013Z,1018.4
2016-11-23T05:56:11.441Z,1018.4
2016-11-23T06:01:15.863Z,1018.4
2016-11-23T06:06:20.296Z,1018.4
2016-11-23T06:11:24.389Z,1018.5
2016-11-23T06:16:28.826Z,1018.6
2016-11-23T06:21:32.925Z,1018.6
2016-11-23T06:26:37.047Z,1018.7
2016-11-23T06:31:41.466Z,1018.7
2016-11-23T06:36:45.893Z,1018.8
2016-11-23T06:41:49.991Z,1018.8
2016-11-23T06:46:54.081Z,1018.9
2016-11-23T06:51:58.173Z,1018.8
2016-11-23T06:57:02.264Z,1018.8
2016-11-23T07:02:06.353Z,1018.8
2016-11-23T07:07:10.446Z,1018.9
2016-11-23T07:12:14.538Z,1018.9
2016-11-23T07:17:18.629Z,1018.9
2016-11-23T07:22:23.055Z,1019
2016-11-23T07:27:27.145Z,1019.1
2016-11-23T07:32:31.569Z,1019
2016-11-23T07:37:35.658Z,1019.2
2016-11-23T07:42:40.416Z,1019.1
2016-11-23T07:47:44.510Z,1019.1
2016-11-23T07:52:48.933Z,1019.2
2016-11-23T07:57:53.364Z,1019.2
2016-11-23T08:02:57.797Z,1019.3
2016-11-23T08:08:02.227Z,1019.3
2016-11-23T08:13:06.315Z,1019.5
2016-11-23T08:18:10.414Z,1019.5
2016-11-23T08:23:14.851Z,1019.5
2016-11-23T08:28:18.936Z,1019.6
2016-11-23T08:33:23.027Z,1019.7
2016-11-23T08:38:27.121Z,1019.7
2016-11-23T08:43:31.553Z,1019.8
2016-11-23T08:48:35.993Z,1019.8
2016-11-23T08:53:40.085Z,1019.9
2016-11-23T08:58:44.520Z,1019.9
2016-11-23T09:03:48.608Z,1020
2016-11-23T09:08:53.379Z,1020
2016-11-23T09:13:57.813Z,1020.1
2016-11-23T09:19:01.922Z,1020.1
2016-11-23T09:24:06.022Z,1020.1
2016-11-23T09:29:10.562Z,1020.2
2016-11-23T09:34:15.325Z,1020.2
2016-11-23T09:39:19.485Z,1020.2
2016-11-23T09:44:23.583Z,1020.2
2016-11-23T09:49:28.348Z,1020.2
2016-11-23T09:54:32.626Z,1020.2
2016-11-23T09:59:37.109Z,1020.1
2016-11-23T10:04:41.204Z,1020.1
2016-11-23T10:09:45.309Z,1020.1
2016-11-23T10:14:49.620Z,1020.2
2016-11-23T10:19:53.750Z,1020.1
2016-11-23T10:24:58.562Z,1020.1
2016-11-23T10:30:02.660Z,1020.1
2016-11-23T10:35:07.098Z,1020.1
2016-11-23T10:40:11.532Z,1020.1
2016-11-23T10:45:15.629Z,1020
2016-11-23T10:50:20.069Z,1020.1
2016-11-23T10:55:24.166Z,1020.1
2016-11-23T11:00:28.263Z,1020.1
2016-11-23T11:05:32.362Z,1020.1
2016-11-23T11:10:37.130Z,1020.2
2016-11-23T11:15:41.227Z,1020.2
2016-11-23T11:20:45.326Z,1020.2
2016-11-23T11:25:49.760Z,1020.1
2016-11-23T11:30:54.292Z,1020.1
2016-11-23T11:35:58.383Z,1020
2016-11-23T11:41:02.476Z,1020.1
2016-11-23T11:46:06.569Z,1020
2016-11-23T11:51:11.336Z,1020
2016-11-23T11:56:18.887Z,1020
2016-11-23T12:01:22.981Z,1020
2016-11-23T12:06:27.080Z,1020.1
2016-11-23T12:11:31.857Z,1020.1
2016-11-23T12:16:36.293Z,1020.1
2016-11-23T12:21:41.058Z,1019.9
2016-11-23T12:26:45.195Z,1019.8
2016-11-23T12:31:49.292Z,1019.7
2016-11-23T12:36:53.724Z,1019.8
2016-11-23T12:41:58.162Z,1020
2016-11-23T12:47:02.602Z,1020.1
2016-11-23T12:52:06.715Z,1020.1
2016-11-23T12:57:10.813Z,1020.1
2016-11-23T13:02:14.901Z,1020
2016-11-23T13:07:19.338Z,1019.8
2016-11-23T13:12:23.471Z,1019.7
2016-11-23T13:17:27.767Z,1019.7
2016-11-23T13:22:32.228Z,1019.8
2016-11-23T13:27:36.327Z,1019.9
2016-11-23T13:32:40.459Z,1019.9
2016-11-23T13:37:44.556Z,1020
2016-11-23T13:42:48.651Z,1020
2016-11-23T13:47:52.747Z,1019.9
2016-11-23T13:52:57.178Z,1019.9
2016-11-23T13:58:01.270Z,1019.9
2016-11-23T14:03:05.370Z,1019.9
2016-11-23T14:08:09.467Z,1019.9
2016-11-23T14:13:13.921Z,1019.9
2016-11-23T14:18:18.364Z,1019.8
2016-11-23T14:23:22.465Z,1020
2016-11-23T14:28:26.917Z,1020.1
2016-11-23T14:33:31.094Z,1020.3
2016-11-23T14:38:35.544Z,1020.4
2016-11-23T14:43:39.642Z,1020.4
2016-11-23T14:48:44.077Z,1020.5
2016-11-23T14:53:48.498Z,1020.5
2016-11-23T14:58:53.086Z,1020.6
2016-11-23T15:03:57.854Z,1020.7
2016-11-23T15:09:01.957Z,1020.7
2016-11-23T15:14:06.720Z,1020.6
2016-11-23T15:19:11.120Z,1020.9
2016-11-23T15:24:15.238Z,1020.9
2016-11-23T15:29:19.684Z,1020.9
2016-11-23T15:34:24.108Z,1020.9
2016-11-23T15:39:43.469Z,1021.1
2016-11-23T15:44:47.564Z,1021.1
2016-11-23T15:49:51.668Z,1021
2016-11-23T15:54:56.105Z,1020.9
2016-11-23T16:00:00.380Z,1020.8
2016-11-23T16:05:04.473Z,1020.9
2016-11-23T16:10:09.258Z,1020.9
2016-11-23T16:15:13.371Z,1021
2016-11-23T16:20:17.805Z,1021
2016-11-23T16:25:22.243Z,1021.1
2016-11-23T16:30:26.341Z,1021.1
2016-11-23T16:35:30.769Z,1021.2
2016-11-23T16:40:35.318Z,1021.2
2016-11-23T16:45:39.409Z,1021.3
2016-11-23T16:50:43.839Z,1021.5
2016-11-23T16:55:47.941Z,1021.6
2016-11-23T17:00:52.369Z,1021.5
2016-11-23T17:05:56.462Z,1021.4
2016-11-23T17:11:00.580Z,1021.5
2016-11-23T17:16:04.887Z,1021.7
2016-11-23T17:21:09.330Z,1021.7
2016-11-23T17:26:13.433Z,1021.8
2016-11-23T17:31:17.563Z,1021.7
2016-11-23T17:36:21.655Z,1021.7
2016-11-23T17:41:26.081Z,1021.7
2016-11-23T17:46:30.169Z,1021.8
2016-11-23T17:51:34.614Z,1021.9
2016-11-23T17:56:38.696Z,1022
2016-11-23T18:01:43.129Z,1022.1
2016-11-23T18:06:47.556Z,1022
2016-11-23T18:11:51.663Z,1022
2016-11-23T18:16:56.108Z,1022.1
2016-11-23T18:22:00.204Z,1022
2016-11-23T18:27:04.964Z,1022
2016-11-23T18:32:09.084Z,1022.1
2016-11-23T18:37:13.500Z,1022.2
2016-11-23T18:42:17.592Z,1022.3
2016-11-23T18:47:22.353Z,1022.2
2016-11-23T18:52:27.453Z,1022.2
2016-11-23T18:57:31.549Z,1022.3
2016-11-23T19:02:35.641Z,1022.4
2016-11-23T19:07:39.735Z,1022.4
2016-11-23T19:12:44.168Z,1022.5
2016-11-23T19:17:48.263Z,1022.5
2016-11-23T19:22:52.690Z,1022.5
2016-11-23T19:27:56.786Z,1022.3
2016-11-23T19:33:00.883Z,1022.3
2016-11-23T19:38:04.971Z,1022.5
2016-11-23T19:43:09.063Z,1022.5
2016-11-23T19:48:13.158Z,1022.7
2016-11-23T19:53:17.584Z,1022.7
2016-11-23T19:58:22.022Z,1022.8
2016-11-23T20:03:26.446Z,1022.8
2016-11-23T20:08:31.448Z,1022.8
2016-11-23T20:13:35.549Z,1022.8
2016-11-23T20:18:39.977Z,1022.8
2016-11-23T20:23:44.073Z,1022.8
2016-11-23T20:28:48.505Z,1022.9
2016-11-23T20:33:52.598Z,1022.9
2016-11-23T20:38:56.696Z,1023
2016-11-23T20:44:00.790Z,1023
2016-11-23T20:49:05.581Z,1023.1
2016-11-23T20:54:10.206Z,1023.2
2016-11-23T20:59:14.314Z,1023.2
2016-11-23T21:04:19.473Z,1023.1
2016-11-23T21:09:23.589Z,1023.2
2016-11-23T21:14:27.760Z,1023.2
2016-11-23T21:19:32.190Z,1023.3
2016-11-23T21:24:36.635Z,1023.3
2016-11-23T21:29:41.397Z,1023.4
2016-11-23T21:34:45.506Z,1023.3
2016-11-23T21:39:49.799Z,1023.4
2016-11-23T21:44:53.927Z,1023.3
2016-11-23T21:49:58.222Z,1023.5
2016-11-23T21:55:02.655Z,1023.4
2016-11-23T22:00:07.432Z,1023.5
2016-11-23T22:05:11.860Z,1023.6
2016-11-23T22:10:15.958Z,1023.6
2016-11-23T22:15:20.083Z,1023.6
2016-11-23T22:20:24.173Z,1023.7
2016-11-23T22:25:28.597Z,1023.7
2016-11-23T22:30:33.355Z,1023.7
2016-11-23T22:35:37.451Z,1023.7
2016-11-23T22:40:41.543Z,1023.7
2016-11-23T22:45:45.649Z,1023.8
2016-11-23T22:50:50.077Z,1023.8
2016-11-23T22:55:54.171Z,1023.8
2016-11-23T23:00:58.269Z,1023.8
2016-11-23T23:06:02.352Z,1023.8
2016-11-23T23:11:06.449Z,1023.8
2016-11-23T23:16:10.550Z,1023.8
2016-11-23T23:21:14.644Z,1023.9
2016-11-23T23:26:18.730Z,1023.9
2016-11-23T23:31:23.492Z,1023.9
2016-11-23T23:36:27.927Z,1023.9
2016-11-23T23:41:32.024Z,1024
2016-11-23T23:46:36.120Z,1024
2016-11-23T23:51:40.213Z,1024
2016-11-23T23:56:44.309Z,1024
